Time;durP1;ratioP1;P1;durP2;ratioP2;P2;SDS_P1;SDS_P2;PMS_P1;PMS_P2;Temp;Humidity;BMP_temperature;BMP_pressure;BME280_temperature;BME280_humidity;BME280_pressure;Samples;Min_cycle;Max_cycle;Signal;HPM_P1;HPM_P2
2022/06/25 00:01:44;;;;;;;1.70;1.42;;;;;;;13.64;100.00;96081.84;4879335;29;20053;-78
2022/06/25 00:06:52;;;;;;;6.53;1.60;;;;;;;13.56;100.00;96080.03;4878917;29;20120;-77
2022/06/25 00:09:19;;;;;;;2.97;1.52;;;;;;;13.57;100.00;96093.38;4883153;29;20434;-78
2022/06/25 00:14:29;;;;;;;4.45;1.77;;;;;;;13.53;100.00;96087.00;4897446;29;20106;-78
2022/06/25 00:16:56;;;;;;;3.85;1.65;;;;;;;13.56;100.00;96090.97;4897706;29;20044;-79
2022/06/25 00:19:23;;;;;;;2.47;1.63;;;;;;;13.55;100.00;96089.38;4896949;29;20055;-77
2022/06/25 00:21:50;;;;;;;2.58;1.63;;;;;;;13.50;100.00;96084.16;4897339;29;20115;-78
2022/06/25 00:24:18;;;;;;;2.00;1.33;;;;;;;13.48;100.00;96083.69;4896997;29;20049;-78
2022/06/25 00:26:45;;;;;;;2.75;1.63;;;;;;;13.51;100.00;96088.47;4897260;29;20051;-81
2022/06/25 00:29:11;;;;;;;2.20;1.70;;;;;;;13.49;100.00;96090.75;4896546;29;20060;-77
2022/06/25 00:31:38;;;;;;;1.67;1.48;;;;;;;13.47;100.00;96090.31;4897381;29;20052;-77
2022/06/25 00:34:05;;;;;;;6.28;1.50;;;;;;;13.52;100.00;96087.31;4896889;29;20045;-77
2022/06/25 00:36:32;;;;;;;6.30;1.70;;;;;;;13.48;100.00;96089.16;4897161;29;20052;-78
2022/06/25 00:38:59;;;;;;;4.55;1.60;;;;;;;13.45;100.00;96085.16;4894984;29;20049;-78
2022/06/25 00:41:26;;;;;;;2.60;1.80;;;;;;;13.49;100.00;96090.75;4896418;29;20088;-78
2022/06/25 00:43:53;;;;;;;2.13;1.50;;;;;;;13.52;100.00;96090.06;4897028;29;20063;-78
2022/06/25 00:46:19;;;;;;;2.88;1.75;;;;;;;13.51;100.00;96083.78;4896333;29;20496;-78
2022/06/25 00:48:46;;;;;;;2.47;1.80;;;;;;;13.60;100.00;96085.63;4896608;29;20052;-78
2022/06/25 00:51:15;;;;;;;4.40;1.90;;;;;;;13.62;100.00;96084.13;4896413;29;20642;-78
2022/06/25 00:53:44;;;;;;;2.60;1.90;;;;;;;13.62;100.00;96077.84;4896870;29;20048;-77
2022/06/25 00:56:12;;;;;;;5.00;1.80;;;;;;;13.62;100.00;96083.31;4894616;29;20104;-78
2022/06/25 00:58:42;;;;;;;2.97;1.35;;;;;;;13.77;100.00;96079.88;4895867;29;20064;-79
2022/06/25 01:01:09;;;;;;;3.05;1.45;;;;;;;13.93;100.00;96083.50;4896125;29;20100;-76
2022/06/25 01:03:36;;;;;;;3.05;1.60;;;;;;;14.02;100.00;96086.09;4896603;29;20508;-79
2022/06/25 01:06:04;;;;;;;3.63;1.70;;;;;;;14.07;100.00;96086.66;4896151;29;20457;-77
2022/06/25 01:08:31;;;;;;;3.60;1.60;;;;;;;14.08;100.00;96077.28;4896384;29;20500;-77
2022/06/25 01:10:58;;;;;;;3.78;1.60;;;;;;;14.14;100.00;96080.59;4878429;29;20045;-78
2022/06/25 01:13:24;;;;;;;3.70;1.70;;;;;;;14.21;100.00;96078.06;4877175;29;20049;-78
2022/06/25 01:15:52;;;;;;;4.38;1.73;;;;;;;14.26;100.00;96079.78;4877789;29;20052;-77
2022/06/25 01:18:19;;;;;;;3.92;1.60;;;;;;;14.25;100.00;96078.97;4877311;29;20061;-78
2022/06/25 01:20:45;;;;;;;2.85;1.77;;;;;;;14.08;100.00;96087.44;4877408;29;20060;-77
2022/06/25 01:23:14;;;;;;;3.00;1.60;;;;;;;14.05;100.00;96079.94;4877257;29;20052;-79
2022/06/25 01:25:42;;;;;;;4.13;1.83;;;;;;;14.19;100.00;96080.34;4877239;29;20061;-81
2022/06/25 01:28:09;;;;;;;4.13;2.10;;;;;;;14.17;100.00;96079.91;4876933;29;20566;-77
2022/06/25 01:30:37;;;;;;;2.17;1.50;;;;;;;14.16;100.00;96081.06;4877489;29;20048;-78
2022/06/25 01:36:25;;;;;;;2.47;1.73;;;;;;;14.31;100.00;96076.78;4877557;29;20138;-77
2022/06/25 01:38:52;;;;;;;3.88;2.00;;;;;;;14.31;100.00;96077.56;4885683;29;20060;-78
2022/06/25 01:41:20;;;;;;;2.38;1.13;;;;;;;14.47;100.00;96079.56;4895758;29;20052;-77
2022/06/25 01:43:47;;;;;;;4.07;1.42;;;;;;;14.30;100.00;96081.47;4896109;29;20048;-78
2022/06/25 01:46:15;;;;;;;3.88;1.38;;;;;;;14.34;100.00;96082.34;4895679;29;20135;-78
2022/06/25 01:48:41;;;;;;;2.50;1.30;;;;;;;14.50;100.00;96084.38;4896161;29;20052;-77
2022/06/25 01:51:08;;;;;;;2.00;1.40;;;;;;;14.52;100.00;96082.09;4895404;29;20075;-77
2022/06/25 01:53:34;;;;;;;1.13;1.00;;;;;;;14.56;100.00;96089.25;4897871;29;20048;-77
2022/06/25 01:56:03;;;;;;;3.08;1.25;;;;;;;14.57;100.00;96079.88;4898222;29;20063;-81
2022/06/25 01:58:29;;;;;;;3.47;1.02;;;;;;;14.60;100.00;96083.84;4897663;29;20072;-80
2022/06/25 02:00:56;;;;;;;2.13;1.38;;;;;;;14.69;100.00;96080.97;4897828;29;20048;-80
2022/06/25 02:03:22;;;;;;;3.33;1.10;;;;;;;14.68;100.00;96082.91;4897042;29;20056;-77
2022/06/25 02:05:58;;;;;;;2.13;0.90;;;;;;;14.66;100.00;96071.50;4897263;29;20069;-78
2022/06/25 02:08:26;;;;;;;1.77;1.02;;;;;;;14.70;100.00;96077.88;4889910;29;20124;-78
2022/06/25 02:10:53;;;;;;;2.08;1.27;;;;;;;14.78;100.00;96079.66;4878447;29;20393;-77
2022/06/25 02:13:22;;;;;;;2.67;0.90;;;;;;;14.82;100.00;96086.00;4877778;29;20053;-77
2022/06/25 02:15:48;;;;;;;2.35;1.27;;;;;;;14.88;100.00;96087.38;4878856;29;20052;-77
2022/06/25 02:18:15;;;;;;;1.08;0.88;;;;;;;14.91;100.00;96080.38;4877680;29;20432;-77
2022/06/25 02:20:42;;;;;;;2.88;1.13;;;;;;;14.93;100.00;96085.50;4878239;29;20060;-78
2022/06/25 02:23:09;;;;;;;3.20;1.08;;;;;;;14.81;100.00;96089.91;4877500;29;20045;-76
2022/06/25 02:25:36;;;;;;;1.90;0.98;;;;;;;14.86;100.00;96086.91;4877501;29;20052;-77
2022/06/25 02:28:03;;;;;;;1.38;0.98;;;;;;;14.85;100.00;96093.53;4878421;29;20049;-77
2022/06/25 02:30:31;;;;;;;1.55;1.00;;;;;;;14.81;100.00;96095.38;4877654;29;20056;-79
2022/06/25 02:32:58;;;;;;;1.23;1.00;;;;;;;14.83;100.00;96093.09;4877680;29;20052;-78
2022/06/25 02:35:25;;;;;;;4.28;2.00;;;;;;;14.80;100.00;96093.00;4877125;29;20045;-77
2022/06/25 02:37:52;;;;;;;4.10;1.20;;;;;;;14.73;100.00;96101.84;4881511;29;20230;-78
2022/06/25 02:40:19;;;;;;;2.13;0.98;;;;;;;14.73;100.00;96098.31;4895675;29;20056;-79
2022/06/25 02:42:45;;;;;;;2.35;1.20;;;;;;;14.48;100.00;96098.41;4896756;29;20053;-79
2022/06/25 02:45:17;;;;;;;1.60;0.93;;;;;;;14.54;100.00;96099.75;4895810;29;20548;-78
2022/06/25 02:47:45;;;;;;;4.78;1.10;;;;;;;14.45;100.00;96087.31;4896409;29;20445;-79
2022/06/25 02:50:12;;;;;;;1.92;1.00;;;;;;;14.56;100.00;96093.91;4896072;29;20053;-79
2022/06/25 02:52:38;;;;;;;3.40;0.80;;;;;;;14.66;100.00;96098.88;4895990;29;20484;-78
2022/06/25 02:55:06;;;;;;;3.00;0.88;;;;;;;14.72;100.00;96103.00;4896096;29;20093;-77
2022/06/25 03:00:17;;;;;;;3.63;1.20;;;;;;;14.74;100.00;96106.16;4896017;29;20609;-78
2022/06/25 03:02:45;;;;;;;7.07;1.30;;;;;;;14.52;100.00;96104.81;4897144;29;20060;-77
2022/06/25 03:05:11;;;;;;;1.58;1.08;;;;;;;14.62;100.00;96103.50;4896623;29;20067;-77
2022/06/25 03:07:38;;;;;;;1.73;1.30;;;;;;;14.59;100.00;96109.66;4893740;29;20060;-77
2022/06/25 03:10:05;;;;;;;2.78;1.30;;;;;;;14.59;100.00;96104.19;4896102;29;20457;-80
2022/06/25 03:12:32;;;;;;;2.05;1.10;;;;;;;14.72;100.00;96113.97;4896682;29;20059;-77
2022/06/25 03:14:58;;;;;;;3.00;1.15;;;;;;;14.72;100.00;96108.47;4896801;29;20441;-78
2022/06/25 03:17:25;;;;;;;1.00;0.90;;;;;;;14.77;100.00;96110.97;4896134;29;20048;-78
2022/06/25 03:19:52;;;;;;;2.08;0.90;;;;;;;14.82;100.00;96112.63;4897703;29;20056;-78
2022/06/25 03:22:20;;;;;;;3.92;1.30;;;;;;;14.88;100.00;96116.72;4899984;29;20052;-78
2022/06/25 03:24:47;;;;;;;2.20;1.10;;;;;;;14.73;100.00;96104.59;4900848;29;20131;-77
2022/06/25 03:27:13;;;;;;;8.05;1.50;;;;;;;14.75;100.00;96112.44;4900466;29;20049;-78
2022/06/25 03:29:40;;;;;;;4.47;1.50;;;;;;;14.81;100.00;96109.09;4900265;29;20059;-78
2022/06/25 03:32:07;;;;;;;3.78;1.40;;;;;;;14.59;100.00;96110.47;4900059;29;20048;-77
2022/06/25 03:34:34;;;;;;;3.00;1.27;;;;;;;14.51;100.00;96108.69;4901709;29;20053;-78
2022/06/25 03:37:02;;;;;;;5.05;1.40;;;;;;;14.56;100.00;96116.66;4899657;29;20127;-78
2022/06/25 03:39:28;;;;;;;1.40;1.00;;;;;;;14.68;100.00;96124.03;4884005;29;20060;-76
2022/06/25 03:41:54;;;;;;;2.90;1.20;;;;;;;14.77;100.00;96130.16;4882439;29;20053;-78
2022/06/25 03:44:21;;;;;;;1.95;1.10;;;;;;;14.84;100.00;96127.59;4881763;29;20060;-78
2022/06/25 03:46:47;;;;;;;2.70;1.15;;;;;;;14.86;100.00;96135.47;4881966;29;20053;-78
2022/06/25 03:49:14;;;;;;;2.47;1.30;;;;;;;14.88;100.00;96133.97;4880613;29;20053;-79
2022/06/25 03:51:40;;;;;;;3.97;1.35;;;;;;;14.77;100.00;96129.34;4880726;29;20502;-78
2022/06/25 03:54:08;;;;;;;3.53;1.42;;;;;;;14.89;100.00;96132.03;4880304;29;20064;-77
2022/06/25 03:56:35;;;;;;;2.42;1.40;;;;;;;14.96;100.00;96134.94;4879825;29;20527;-77
2022/06/25 03:59:02;;;;;;;1.85;1.10;;;;;;;15.01;100.00;96133.91;4879815;29;20053;-74
2022/06/25 04:01:28;;;;;;;3.70;1.10;;;;;;;15.04;100.00;96138.69;4879974;29;20501;-78
2022/06/25 04:03:55;;;;;;;3.92;1.15;;;;;;;15.04;100.00;96135.94;4879988;29;20060;-78
2022/06/25 04:06:21;;;;;;;2.38;1.40;;;;;;;15.02;100.00;96138.22;4878816;29;20553;-78
2022/06/25 04:08:48;;;;;;;3.53;1.38;;;;;;;15.03;100.00;96139.81;4882377;29;20060;-78
2022/06/25 04:11:16;;;;;;;3.83;1.48;;;;;;;15.06;100.00;96144.59;4877539;29;20061;-78
2022/06/25 04:13:42;;;;;;;4.55;1.60;;;;;;;15.06;100.00;96150.09;4879689;29;20045;-78
2022/06/25 04:16:09;;;;;;;4.35;1.52;;;;;;;15.07;100.00;96147.00;4879148;29;20049;-78
2022/06/25 04:18:35;;;;;;;4.10;1.80;;;;;;;14.97;100.00;96146.72;4879129;29;20071;-77
2022/06/25 04:21:02;;;;;;;6.32;1.55;;;;;;;14.98;100.00;96142.81;4878724;29;20056;-77
2022/06/25 04:23:28;;;;;;;1.67;1.20;;;;;;;15.06;100.00;96155.56;4879120;29;20060;-77
2022/06/25 04:25:55;;;;;;;3.08;1.23;;;;;;;15.06;100.00;96150.09;4878766;29;20053;-77
2022/06/25 04:31:07;;;;;;;3.60;1.40;;;;;;;14.96;100.00;96156.88;4878586;29;20071;-79
2022/06/25 04:33:34;;;;;;;3.45;1.38;;;;;;;14.93;100.00;96156.78;4878366;29;20079;-78
2022/06/25 04:36:00;;;;;;;4.30;1.50;;;;;;;14.98;100.00;96153.78;4878716;29;20045;-78
2022/06/25 04:38:27;;;;;;;3.83;1.15;;;;;;;14.87;100.00;96154.28;4880869;29;20053;-78
2022/06/25 04:40:56;;;;;;;2.83;1.20;;;;;;;14.92;100.00;96155.19;4878754;29;20057;-78
2022/06/25 04:43:24;;;;;;;4.35;1.50;;;;;;;14.95;100.00;96154.50;4878119;29;20048;-78
2022/06/25 04:45:51;;;;;;;3.42;1.35;;;;;;;14.74;100.00;96154.72;4878595;29;20079;-79
2022/06/25 04:48:17;;;;;;;7.75;1.48;;;;;;;14.73;100.00;96162.16;4877599;29;20056;-78
2022/06/25 04:50:44;;;;;;;6.20;1.17;;;;;;;14.68;100.00;96151.44;4878776;29;20041;-78
2022/06/25 04:53:11;;;;;;;6.40;1.65;;;;;;;14.77;100.00;96165.78;4877813;29;20049;-78
2022/06/25 04:55:37;;;;;;;2.30;1.45;;;;;;;14.99;100.00;96160.88;4878529;29;20052;-78
2022/06/25 04:58:04;;;;;;;2.50;1.20;;;;;;;14.94;100.00;96152.91;4877757;29;20117;-78
2022/06/25 05:00:31;;;;;;;2.20;1.40;;;;;;;14.88;100.00;96155.91;4878241;29;20056;-78
2022/06/25 05:02:58;;;;;;;2.00;1.02;;;;;;;14.99;100.00;96166.38;4878057;29;20053;-79
2022/06/25 05:05:24;;;;;;;1.67;1.10;;;;;;;15.09;100.00;96163.13;4877782;29;20053;-77
2022/06/25 05:07:51;;;;;;;4.95;1.45;;;;;;;15.22;100.00;96164.63;4881068;29;20045;-79
2022/06/25 05:10:17;;;;;;;4.07;1.10;;;;;;;15.21;100.00;96173.22;4877183;29;20055;-79
2022/06/25 05:15:28;;;;;;;5.68;1.33;;;;;;;15.23;100.00;96176.38;4877723;29;20144;-78
2022/06/25 05:17:56;;;;;;;3.05;1.10;;;;;;;15.19;100.00;96176.31;4877842;29;20516;-79
2022/06/25 05:20:23;;;;;;;1.77;1.02;;;;;;;15.19;100.00;96176.31;4877360;29;20098;-78
2022/06/25 05:22:50;;;;;;;7.93;1.40;;;;;;;15.23;100.00;96176.38;4877808;29;20056;-78
2022/06/25 05:25:16;;;;;;;1.95;0.93;;;;;;;15.34;100.00;96181.00;4877194;29;20438;-78
2022/06/25 05:27:43;;;;;;;3.67;1.10;;;;;;;15.40;100.00;96190.56;4877544;29;20061;-78
2022/06/25 05:30:10;;;;;;;2.75;1.10;;;;;;;15.42;100.00;96192.16;4879941;29;20056;-77
2022/06/25 05:32:36;;;;;;;2.92;1.35;;;;;;;15.46;99.72;96182.88;4880659;29;20052;-78
2022/06/25 05:35:05;;;;;;;2.88;0.93;;;;;;;15.47;99.43;96192.69;4897835;29;20505;-78
2022/06/25 05:37:31;;;;;;;2.00;1.00;;;;;;;15.63;99.10;96185.28;4897570;29;20055;-78
2022/06/25 05:39:58;;;;;;;1.85;1.05;;;;;;;15.67;99.01;96190.88;4897647;29;20063;-79
2022/06/25 05:42:24;;;;;;;4.13;0.95;;;;;;;15.68;98.06;96189.72;4895817;29;20044;-78
2022/06/25 05:44:51;;;;;;;2.70;1.00;;;;;;;15.78;97.69;96196.63;4895351;29;20051;-79
2022/06/25 05:47:17;;;;;;;6.63;1.10;;;;;;;15.60;97.16;96202.44;4896132;29;20059;-77
2022/06/25 05:49:44;;;;;;;6.55;1.67;;;;;;;15.75;97.25;96200.88;4896500;29;20048;-79
2022/06/25 05:52:11;;;;;;;4.18;1.40;;;;;;;15.65;96.58;96198.66;4895650;29;20146;-78
2022/06/25 05:54:38;;;;;;;2.13;1.20;;;;;;;15.83;96.62;96199.91;4896130;29;20075;-78
2022/06/25 05:57:05;;;;;;;3.17;1.10;;;;;;;15.62;95.75;96205.63;4895615;29;20688;-78
2022/06/25 05:59:31;;;;;;;2.15;1.10;;;;;;;15.64;97.30;96206.09;4877259;29;20065;-78
2022/06/25 06:01:58;;;;;;;1.88;1.27;;;;;;;15.69;96.33;96205.03;4883063;29;20049;-78
2022/06/25 06:04:24;;;;;;;3.55;1.25;;;;;;;15.80;96.44;96200.59;4876222;29;20076;-77
2022/06/25 06:06:51;;;;;;;3.72;1.13;;;;;;;15.92;96.48;96213.44;4872772;29;20049;-76
2022/06/25 06:09:19;;;;;;;3.63;1.10;;;;;;;15.88;95.83;96205.13;4872204;29;20049;-75
2022/06/25 06:11:45;;;;;;;6.82;1.40;;;;;;;15.91;96.34;96209.09;4872667;29;20053;-75
2022/06/25 06:14:12;;;;;;;3.42;1.23;;;;;;;16.06;94.40;96210.22;4872264;29;20505;-75
2022/06/25 06:16:38;;;;;;;2.13;1.17;;;;;;;16.09;95.06;96207.59;4872736;29;20599;-76
2022/06/25 06:19:05;;;;;;;3.25;1.33;;;;;;;16.22;95.07;96211.00;4872224;29;20048;-77
2022/06/25 06:21:31;;;;;;;4.10;1.23;;;;;;;16.28;93.33;96214.25;4872235;29;20051;-78
2022/06/25 06:23:57;;;;;;;2.67;1.13;;;;;;;16.20;93.14;96218.81;4872695;29;20406;-79
2022/06/25 06:26:25;;;;;;;3.05;1.10;;;;;;;16.16;93.54;96215.19;4872111;29;20049;-77
2022/06/25 06:28:52;;;;;;;6.70;1.13;;;;;;;16.24;92.34;96216.16;4872598;29;20064;-77
2022/06/25 06:31:18;;;;;;;2.95;1.05;;;;;;;16.34;93.19;96227.38;4871552;29;20057;-77
2022/06/25 06:33:45;;;;;;;3.58;1.00;;;;;;;16.33;93.96;96228.53;4881971;29;20493;-78
2022/06/25 06:36:12;;;;;;;2.00;1.30;;;;;;;16.34;93.64;96226.56;4890613;29;20053;-75
2022/06/25 06:38:39;;;;;;;1.30;0.90;;;;;;;16.29;93.22;96226.88;4891308;29;20060;-79
2022/06/25 06:41:05;;;;;;;2.92;1.08;;;;;;;16.29;92.77;96227.66;4890576;29;20136;-76
2022/06/25 06:43:33;;;;;;;2.92;1.20;;;;;;;16.56;93.50;96227.84;4891087;29;20044;-76
2022/06/25 06:46:00;;;;;;;2.05;1.10;;;;;;;16.57;92.66;96224.75;4891581;29;20056;-75
2022/06/25 06:48:26;;;;;;;3.03;1.13;;;;;;;16.76;93.53;96225.94;4894760;29;20044;-75
2022/06/25 06:50:53;;;;;;;1.38;1.00;;;;;;;16.84;93.15;96224.94;4894709;29;20060;-75
2022/06/25 06:53:21;;;;;;;4.03;1.77;;;;;;;16.82;93.60;96236.31;4894758;29;20053;-76
2022/06/25 06:55:47;;;;;;;2.08;1.30;;;;;;;16.95;89.87;96226.75;4897002;29;20501;-76
2022/06/25 06:58:14;;;;;;;2.00;1.08;;;;;;;17.15;89.92;96230.28;4898306;29;20052;-77
2022/06/25 07:00:42;;;;;;;2.95;1.15;;;;;;;17.41;91.38;96226.06;4898508;29;20064;-76
2022/06/25 07:03:08;;;;;;;2.08;0.90;;;;;;;17.42;92.46;96227.63;4898662;29;20048;-76
2022/06/25 07:05:35;;;;;;;4.38;1.27;;;;;;;17.50;90.40;96223.06;4899056;29;20390;-77
2022/06/25 07:08:01;;;;;;;4.15;1.08;;;;;;;17.66;89.59;96226.50;4899164;29;20068;-75
2022/06/25 07:10:28;;;;;;;2.22;1.10;;;;;;;17.54;84.67;96234.94;4899155;29;20057;-76
2022/06/25 07:12:54;;;;;;;2.78;1.00;;;;;;;17.55;86.52;96234.59;4899254;29;20517;-78
2022/06/25 07:15:21;;;;;;;4.63;1.00;;;;;;;17.54;85.62;96232.16;4899183;29;20056;-77
2022/06/25 07:17:48;;;;;;;3.15;1.00;;;;;;;17.61;84.80;96232.31;4899610;29;20060;-78
2022/06/25 07:20:15;;;;;;;3.13;1.10;;;;;;;17.59;85.58;96220.84;4898935;29;20057;-77
2022/06/25 07:22:41;;;;;;;1.58;0.90;;;;;;;17.73;84.84;96226.66;4899504;29;20041;-77
2022/06/25 07:25:09;;;;;;;3.33;1.27;;;;;;;17.73;85.96;96226.66;4899371;29;20052;-76
2022/06/25 07:27:38;;;;;;;1.75;1.15;;;;;;;17.83;85.60;96228.78;4899596;29;20567;-78
2022/06/25 07:30:05;;;;;;;3.38;1.08;;;;;;;17.75;86.38;96224.34;4899236;29;20108;-76
2022/06/25 07:32:31;;;;;;;3.28;1.25;;;;;;;17.83;87.41;96220.53;4899799;29;20669;-77
2022/06/25 07:34:59;;;;;;;1.52;0.93;;;;;;;17.93;86.70;96219.91;4881556;29;20049;-77
2022/06/25 07:37:26;;;;;;;2.55;1.15;;;;;;;17.87;85.99;96220.59;4881773;29;20056;-76
2022/06/25 07:39:52;;;;;;;3.92;1.27;;;;;;;17.74;87.24;96217.22;4882200;29;20583;-76
2022/06/25 07:42:19;;;;;;;0.85;0.80;;;;;;;17.96;86.55;96213.69;4878823;29;20454;-77
2022/06/25 07:44:45;;;;;;;3.72;1.23;;;;;;;17.87;86.62;96215.09;4879222;29;20044;-77
2022/06/25 07:47:12;;;;;;;2.60;1.38;;;;;;;17.77;83.95;96216.50;4879024;29;20049;-77
2022/06/25 07:52:20;;;;;;;3.75;1.20;;;;;;;17.86;84.28;96208.00;4877946;29;20052;-78
2022/06/25 07:54:47;;;;;;;3.80;1.33;;;;;;;17.96;86.95;96208.16;4879390;29;20056;-78
2022/06/25 07:57:13;;;;;;;4.50;1.10;;;;;;;17.98;83.86;96205.81;4878934;29;20417;-77
2022/06/25 07:59:39;;;;;;;3.25;1.20;;;;;;;18.07;86.28;96213.06;4879169;29;20139;-78
2022/06/25 08:02:06;;;;;;;2.17;1.40;;;;;;;18.24;85.52;96213.31;4878483;29;20060;-75
2022/06/25 08:04:33;;;;;;;1.30;0.90;;;;;;;18.26;84.57;96210.97;4879000;29;20045;-77
2022/06/25 08:06:59;;;;;;;3.63;1.23;;;;;;;18.25;84.40;96217.66;4877905;29;20045;-76
2022/06/25 08:09:27;;;;;;;4.10;1.48;;;;;;;18.03;81.37;96217.72;4878389;29;20066;-76
2022/06/25 08:11:53;;;;;;;4.70;1.35;;;;;;;18.11;82.46;96206.41;4878797;29;20101;-77
2022/06/25 08:14:20;;;;;;;1.77;1.40;;;;;;;18.15;82.58;96209.22;4878247;29;20049;-76
2022/06/25 08:16:46;;;;;;;2.80;1.30;;;;;;;18.11;83.33;96216.63;4878802;29;20052;-78
2022/06/25 08:19:13;;;;;;;6.25;1.50;;;;;;;18.29;82.44;96214.16;4878565;29;20413;-78
2022/06/25 08:21:39;;;;;;;3.38;1.30;;;;;;;18.23;80.42;96216.44;4878769;29;20053;-78
2022/06/25 08:24:06;;;;;;;3.60;1.27;;;;;;;18.27;83.07;96217.31;4878284;29;20060;-77
2022/06/25 08:26:34;;;;;;;2.55;1.30;;;;;;;18.44;84.87;96211.25;4878589;29;20097;-78
2022/06/25 08:29:01;;;;;;;2.47;1.20;;;;;;;18.84;82.96;96223.63;4878784;29;20064;-78
2022/06/25 08:31:29;;;;;;;2.92;1.35;;;;;;;18.83;78.67;96216.50;4877537;29;20053;-78
2022/06/25 08:33:55;;;;;;;5.45;1.25;;;;;;;19.02;78.89;96219.13;4889409;29;20053;-77
2022/06/25 08:36:22;;;;;;;2.80;1.30;;;;;;;18.97;78.28;96222.22;4896679;29;20064;-77
2022/06/25 08:38:48;;;;;;;2.38;1.10;;;;;;;18.80;75.64;96211.75;4897022;29;20127;-77
2022/06/25 08:41:15;;;;;;;2.95;1.15;;;;;;;18.82;76.11;96208.63;4895816;29;20053;-77
2022/06/25 08:43:43;;;;;;;2.17;1.15;;;;;;;19.10;78.88;96216.44;4896920;29;20049;-77
2022/06/25 08:46:10;;;;;;;3.85;1.50;;;;;;;19.22;79.54;96218.97;4896477;29;20052;-77
2022/06/25 08:48:38;;;;;;;1.40;1.23;;;;;;;19.20;77.96;96215.78;4896762;29;20055;-78
2022/06/25 08:51:05;;;;;;;3.80;0.98;;;;;;;19.35;76.86;96213.97;4896386;29;20063;-78
2022/06/25 08:53:33;;;;;;;3.25;1.13;;;;;;;19.52;73.58;96214.16;4896965;29;20056;-77
2022/06/25 08:56:01;;;;;;;2.92;1.10;;;;;;;19.52;74.15;96214.16;4896802;29;20053;-78
2022/06/25 08:58:27;;;;;;;2.40;0.98;;;;;;;19.75;75.72;96208.47;4896102;29;20049;-78
2022/06/25 09:00:55;;;;;;;3.55;1.02;;;;;;;20.07;73.20;96217.03;4897203;29;20059;-78
2022/06/25 09:03:22;;;;;;;1.90;0.90;;;;;;;20.25;69.23;96210.84;4896244;29;20056;-77
2022/06/25 09:05:48;;;;;;;2.58;0.90;;;;;;;20.38;66.25;96214.09;4896756;29;20052;-78
2022/06/25 09:08:16;;;;;;;0.95;0.80;;;;;;;20.25;69.90;96206.09;4896164;29;20045;-76
2022/06/25 09:10:45;;;;;;;1.92;1.00;;;;;;;20.27;69.53;96205.75;4896345;29;20053;-77
2022/06/25 09:13:14;;;;;;;1.55;0.82;;;;;;;20.11;66.26;96205.22;4896024;29;20052;-78
2022/06/25 09:15:42;;;;;;;4.47;1.05;;;;;;;20.30;71.82;96205.75;4896259;29;20045;-78
2022/06/25 09:18:12;;;;;;;2.30;0.95;;;;;;;20.32;65.65;96205.38;4895819;29;20059;-77
2022/06/25 09:20:57;;;;;;;1.30;0.85;;;;;;;20.30;66.04;96202.19;4877906;29;20049;-79
2022/06/25 09:23:25;;;;;;;3.05;1.17;;;;;;;20.50;68.08;96206.31;4877191;29;20049;-77
2022/06/25 09:26:02;;;;;;;1.50;0.88;;;;;;;20.45;64.02;96203.06;4877308;29;20041;-78
2022/06/25 09:28:30;;;;;;;1.52;1.00;;;;;;;20.82;67.61;96200.94;4876858;29;20045;-78
2022/06/25 09:30:57;;;;;;;1.15;0.90;;;;;;;21.08;69.66;96202.63;4877915;29;20167;-78
2022/06/25 09:33:24;;;;;;;0.85;0.65;;;;;;;21.06;64.31;96193.94;4876877;29;20049;-78
2022/06/25 09:35:52;;;;;;;1.50;0.90;;;;;;;21.29;64.43;96201.13;4876766;29;20513;-78
2022/06/25 09:38:19;;;;;;;2.42;1.33;;;;;;;21.34;67.16;96200.75;4876932;29;20053;-78
2022/06/25 09:40:49;;;;;;;2.85;0.98;;;;;;;21.67;66.87;96196.09;4877041;29;20519;-78
2022/06/25 09:43:17;;;;;;;1.55;0.90;;;;;;;21.50;59.91;96203.97;4876444;29;20049;-78
2022/06/25 09:45:45;;;;;;;0.80;0.70;;;;;;;21.60;63.00;96200.41;4877021;29;20044;-79
2022/06/25 09:48:18;;;;;;;1.80;0.80;;;;;;;21.30;59.39;96198.00;4876994;29;20512;-77
2022/06/25 09:51:04;;;;;;;3.08;1.00;;;;;;;21.60;64.75;96200.41;4877496;29;20101;-78
2022/06/25 09:53:30;;;;;;;1.90;0.80;;;;;;;21.07;60.87;96206.59;4876881;29;20045;-79
2022/06/25 09:55:59;;;;;;;1.35;0.80;;;;;;;20.88;61.53;96195.03;4877193;29;20436;-79
2022/06/25 09:58:27;;;;;;;1.90;1.00;;;;;;;21.19;61.70;96197.13;4876662;29;20414;-79
2022/06/25 10:00:54;;;;;;;2.92;1.00;;;;;;;21.44;63.23;96197.22;4877208;29;20694;-78
2022/06/25 10:03:21;;;;;;;1.50;0.63;;;;;;;21.52;58.59;96198.84;4876911;29;20049;-79
2022/06/25 10:05:49;;;;;;;2.10;1.15;;;;;;;21.96;69.72;96189.38;4877196;29;20591;-79
2022/06/25 10:08:18;;;;;;;4.03;0.90;;;;;;;22.15;64.17;96185.44;4876254;29;20420;-78
2022/06/25 10:10:48;;;;;;;1.75;0.80;;;;;;;22.24;65.60;96196.13;4876995;29;20049;-78
2022/06/25 10:13:15;;;;;;;2.33;0.93;;;;;;;22.08;63.10;96196.50;4876409;29;20048;-79
2022/06/25 10:15:41;;;;;;;3.03;0.90;;;;;;;22.02;62.98;96187.78;4876875;29;20049;-79
2022/06/25 10:18:10;;;;;;;1.58;0.80;;;;;;;22.25;63.02;96189.41;4876632;29;20064;-78
2022/06/25 10:20:37;;;;;;;1.63;0.88;;;;;;;22.55;63.99;96181.44;4876990;29;20071;-78
2022/06/25 10:23:06;;;;;;;1.38;0.80;;;;;;;22.63;56.07;96182.97;4876536;29;20049;-78
2022/06/25 10:25:34;;;;;;;1.90;1.00;;;;;;;22.65;56.36;96179.78;4876546;29;20135;-79
2022/06/25 10:28:06;;;;;;;1.27;0.65;;;;;;;22.57;57.07;96176.25;4876664;29;20072;-78
2022/06/25 10:30:43;;;;;;;1.33;0.60;;;;;;;21.97;54.55;96181.84;4875947;29;20069;-78
2022/06/25 10:33:09;;;;;;;2.65;0.70;;;;;;;21.88;56.64;96171.16;4881054;29;20049;-79
2022/06/25 10:35:39;;;;;;;3.47;0.60;;;;;;;22.19;59.75;96163.25;4895057;29;20049;-78
2022/06/25 10:38:09;;;;;;;1.58;0.90;;;;;;;22.34;65.91;96162.03;4894476;29;20069;-78
2022/06/25 10:40:51;;;;;;;1.23;0.68;;;;;;;22.36;54.34;96165.19;4895184;29;20071;-79
2022/06/25 10:43:37;;;;;;;3.22;0.95;;;;;;;22.28;55.87;96161.63;4894990;29;20082;-78
2022/06/25 10:46:37;;;;;;;0.73;0.60;;;;;;;22.12;62.91;96162.06;4894461;29;20098;-79
2022/06/25 10:49:07;;;;;;;4.13;0.82;;;;;;;22.40;59.94;96155.69;4895119;29;20490;-79
2022/06/25 10:51:40;;;;;;;2.00;0.93;;;;;;;22.65;60.87;96152.81;4895783;29;20049;-79
2022/06/25 10:54:13;;;;;;;1.75;0.70;;;;;;;22.83;58.63;96151.97;4894972;29;20079;-78
2022/06/25 10:56:45;;;;;;;3.75;0.70;;;;;;;22.73;57.54;96147.25;4895908;29;20048;-79
2022/06/25 10:59:30;;;;;;;1.80;0.80;;;;;;;22.86;60.71;96143.63;4895449;29;20057;-79
2022/06/25 11:01:58;;;;;;;1.73;0.70;;;;;;;22.85;53.87;96150.38;4894625;29;20449;-79
2022/06/25 11:04:26;;;;;;;1.92;0.80;;;;;;;22.56;53.16;96149.69;4895012;29;20049;-79
2022/06/25 11:06:54;;;;;;;2.35;0.70;;;;;;;22.40;55.50;96130.72;4895830;29;20079;-78
2022/06/25 11:09:21;;;;;;;2.28;0.70;;;;;;;22.51;52.25;96138.22;4894969;29;20049;-78
2022/06/25 11:11:49;;;;;;;1.25;0.75;;;;;;;22.37;54.69;96136.28;4895669;29;20045;-82
2022/06/25 11:14:19;;;;;;;1.63;0.55;;;;;;;22.42;60.10;96138.63;4895403;29;20132;-79
2022/06/25 11:16:46;;;;;;;2.05;0.90;;;;;;;22.37;64.71;96131.50;4896585;29;20055;-79
2022/06/25 11:19:13;;;;;;;2.58;0.70;;;;;;;22.34;60.48;96137.06;4896178;29;20052;-78
2022/06/25 11:21:41;;;;;;;1.38;0.70;;;;;;;22.70;58.98;96134.19;4897798;29;20040;-79
2022/06/25 11:24:19;;;;;;;0.93;0.70;;;;;;;22.82;56.80;96133.75;4896671;29;20063;-77
2022/06/25 11:29:35;;;;;;;0.52;0.52;;;;;;;22.48;57.59;96130.69;4899196;29;20059;-78
2022/06/25 11:32:01;;;;;;;1.27;0.80;;;;;;;22.49;59.42;96132.25;4901022;29;20048;-79
2022/06/25 11:34:30;;;;;;;2.65;0.80;;;;;;;22.56;58.15;96133.06;4889398;29;20052;-80
2022/06/25 11:37:08;;;;;;;2.35;0.75;;;;;;;22.82;58.47;96122.66;4887040;29;20509;-79
2022/06/25 11:39:36;;;;;;;1.48;0.55;;;;;;;22.78;56.85;96121.88;4890189;29;20481;-79
2022/06/25 11:42:07;;;;;;;2.17;0.80;;;;;;;22.80;54.64;96127.78;4894212;29;20045;-80
2022/06/25 11:44:44;;;;;;;2.38;0.70;;;;;;;23.06;57.84;96129.28;4893566;29;20052;-77
2022/06/25 11:47:12;;;;;;;2.67;0.80;;;;;;;23.24;58.43;96126.44;4892478;29;20587;-79
2022/06/25 11:49:40;;;;;;;0.60;0.60;;;;;;;23.22;56.76;96128.81;4893956;29;20059;-79
2022/06/25 11:52:08;;;;;;;2.28;0.80;;;;;;;23.26;54.87;96124.03;4893405;29;20063;-80
2022/06/25 11:54:36;;;;;;;0.60;0.50;;;;;;;23.35;52.77;96121.59;4893875;29;20608;-80